AirNav   TITAN Aviation Fuels
 
 423 users online  

0TN9 East Tennessee Children's Hospital Heliport
Knoxville, Tennessee, USA

GOING TO KNOXVILLE?


FAA INFORMATION EFFECTIVE 22 APRIL 2021

Location

FAA Identifier: 0TN9
Lat/Long: 35-57-22.2960N 083-56-17.6630W
35-57.371600N 083-56.294383W
35.9561933,-83.9382397
(estimated)
Elevation: 1003 ft. / 306 m (estimated)
Variation: 03W (1980)
Time zone: UTC -4 (UTC -5 during Standard Time)
Zip code: 37916

Heliport Operations

Heliport use: Private use, MEDICAL.
Activation date: 11/1986
Control tower: no
ARTCC: ATLANTA CENTER
FSS: NASHVILLE FLIGHT SERVICE STATION
Attendance: UNATNDD
Wind indicator: lighted
Segmented circle: no
Lights: FOR PERIMETER AND FLOOD LGTS CALL 865-541-8000.

Heliport Communications

WX AWOS-3 at DKX (3 nm E): 125.375 (865-579-6151)
WX ASOS at TYS (9 nm S): PHONE 865-981-4053

Nearby radio navigation aids

VOR radial/distance  VOR name  Freq  Var
VXVr329/3.7VOLUNTEER VORTAC116.4003W

 
NDB name  Hdg/Dist  Freq  Var  ID
JEFFERSON252/24.334604WJXT .--- -..- -

Heliport Services

Runway Information

Helipad H1

Dimensions: 46 x 46 ft. / 14 x 14 m
Surface: concrete, in good condition
ROOFTOP.
Runway edge lights: PERI
AND FLOODS LGTS.
Latitude: 35-57.371600N
Longitude: 083-56.294383W
Elevation: 1003.0 ft.
Traffic pattern: leftleft

Heliport Ownership and Management from official FAA records

Ownership: Privately-owned
Owner: EAST TN. CHILDREN'S HOSPITAL
2018 WEST CLINCH AVE
KNOXVILLE, TN 37916
Phone 865-541-8000
Manager: TERRY HALL
2018 WEST CLINCH AVE
KNOXVILLE, TN 37916
Phone (865) 541-8815

Heliport Operational Statistics

Aircraft based on the field: 1
Helicopters: 1
    

Additional Remarks

FOR CD CTC ATLANTA ARTCC AT 770-210-7692.

Instrument Procedures

There are no published instrument procedures at 0TN9.

Some nearby airports with instrument procedures:

KDKX - Knoxville Downtown Island Airport (3 nm E)
KTYS - Mc Ghee Tyson Airport (9 nm S)
KGKT - Gatlinburg-Pigeon Forge Airport (21 nm E)
KJAU - Colonel Tommy C Stiner Airfield (25 nm NW)
KMOR - Moore-Murrell Airport (30 nm NE)
 
Loc | Ops | Rwys | IFR | FBO | Links
Com | Nav | Svcs | Stats | Notes
Area around 0TN9 (East Tennessee Children's Hospital Heliport)
 
Road maps at: MapQuest Bing Google
 
Aerial photo
No photo
 
Sectional chart

 
Airport distance calculator
Flying to East Tennessee Children's Hospital Heliport? Find the distance to fly.

From to 0TN9

Sunrise and sunset
Times for 11-May-2021
 Local
(UTC-4)
 Zulu
(UTC)
Morning civil twilight06:0610:06
Sunrise06:3410:34
Sunset20:3000:30
Evening civil twilight20:5800:58

Current date and time
Zulu (UTC)  11-May-2021 07:24:40
Local (UTC-4)  11-May-2021 03:24:40
 
METAR
KDKX 
3nm E 
110655Z AUTO 00000KT 10SM BKN029 09/09 A3009 RMK A01
KTYS 
9nm S 
110653Z 04003KT 10SM BKN029 11/09 A3007 RMK AO2 SLP180 T01060089 $
KOQT 
15nm W 
110653Z AUTO 00000KT 10SM CLR 08/07 A3010 RMK AO2 SLP195 T00780067
TAF
KTYS 
9nm S 
110539Z 1106/1206 01005KT P6SM OVC020 FM110900 VRB03KT 6SM BR SCT030 TEMPO 1109/1112 3SM BR BKN015 FM111200 03005KT P6SM BKN100 FM111900 02005KT P6SM BKN100 PROB30 1203/1206 4SM -SHRA BR OVC025
NOTAMs
Click for the latest NOTAMs
NOTAMs are issued by the DoD/FAA and will open in a separate window not controlled by AirNav.

 

 
 

Would you like to see your business listed on this page?

 If your business provides an interesting product or service to pilots, flight crews, aircraft, or users of the East Tennessee Children's Hospital Heliport, you should consider listing it here.  To start the listing process, click on the button below
 
Add a business
 

Other Pages about East Tennessee Children's Hospital Heliport

Update a link
 
Copyright © AirNav, LLC. All rights reserved. Privacy Policy  Contact